Em Psara — A8UG5 — position and weather

sailwx.info

Track history (hours):
 
Tides and Currents Weather Stations Pressure Air Temp Water Temp Dewpoint Dewpoint Depression Visibility Wind Speed Wind Dir Waves Ship Positions

Em Psara

Last reported at 2017-Sep-28 15:39 UTC. Time now 2017-Oct-16 22:35 UTC.
Position N 36°08' W 005°18'.
Warning: this ship's position is 18 days out of date.

Length 206 m; draft 8.2 m.

Type: Cargo ship. MMSI: 636014960.

Date/timePositionNaut miles runAvg speedWind from/ knotsBaromVisibWave heightAir tempDewpointWater temp
2017-Sep-28 15:39N 36°08' W 005°18'0 0.0
2017-Sep-28 15:27N 36°08' W 005°18'0 0.0
2017-Sep-28 12:45N 36°08' W 005°18'0 0.0
2017-Sep-28 12:22N 36°08' W 005°18'0 0.0
2017-Sep-28 11:58N 36°08' W 005°18'0 0.0
2017-Sep-28 09:44N 36°08' W 005°18'0 0.0
2017-Sep-28 07:03N 36°08' W 005°18'0 0.1
2017-Sep-28 06:54N 36°08' W 005°18'0 0.1
2017-Sep-28 06:30N 36°08' W 005°18'0 0.0
2017-Sep-28 05:59N 36°08' W 005°18'0 0.0
2017-Sep-28 05:29N 36°08' W 005°18'0 0.1
2017-Sep-28 04:59N 36°08' W 005°18'0 0.0
2017-Sep-28 04:29N 36°08' W 005°18'0 0.0
2017-Sep-28 03:58N 36°08' W 005°18'0 0.0
2017-Sep-28 03:30N 36°08' W 005°18'0 0.0
2017-Sep-28 02:52N 36°08' W 005°18'0 0.0
2017-Sep-28 02:28N 36°08' W 005°18'0 0.1
2017-Sep-28 01:58N 36°08' W 005°18'0 0.0
2017-Sep-28 01:28N 36°08' W 005°18'0 0.0
2017-Sep-28 01:00N 36°08' W 005°18'0 0.0
2017-Sep-28 00:30N 36°08' W 005°18'0 0.0
2017-Sep-28 00:00N 36°08' W 005°18'0 0.0
2017-Sep-27 23:30N 36°08' W 005°18'0 0.0
2017-Sep-27 22:59N 36°08' W 005°18'0 0.0
2017-Sep-27 22:29N 36°08' W 005°18'0 0.0
2017-Sep-27 21:55N 36°08' W 005°18'0 0.0
2017-Sep-27 21:28N 36°08' W 005°18'0 0.0
2017-Sep-27 21:00N 36°08' W 005°18'0 0.0
2017-Sep-27 20:30N 36°08' W 005°18'0 0.0
2017-Sep-27 20:00N 36°08' W 005°18'0 0.0
2017-Sep-27 19:24N 36°08' W 005°18'0 0.0
2017-Sep-27 18:59N 36°08' W 005°18'0 0.0
2017-Sep-27 18:28N 36°08' W 005°18'0 0.0
2017-Sep-27 17:58N 36°08' W 005°18'0 0.0
2017-Sep-27 17:30N 36°08' W 005°18'0 0.0
2017-Sep-27 17:00N 36°08' W 005°18'0 0.0
2017-Sep-27 16:30N 36°08' W 005°18'0 0.0
2017-Sep-27 16:00N 36°08' W 005°18'0 0.0
2017-Sep-27 15:08N 36°08' W 005°18'0 0.3
2017-Sep-27 14:59N 36°08' W 005°18'0 0.1
2017-Sep-27 14:29N 36°08' W 005°18'0 0.0
2017-Sep-27 13:49N 36°08' W 005°18'0 0.0
2017-Sep-27 13:28N 36°08' W 005°18'0 0.0
2017-Sep-27 12:59N 36°08' W 005°18'0 0.0
2017-Sep-27 12:20N 36°08' W 005°18'0 0.0
2017-Sep-27 11:56N 36°08' W 005°18'0 0.0
2017-Sep-27 11:29N 36°08' W 005°18'0 0.0
2017-Sep-27 10:59N 36°08' W 005°18'0 0.1
2017-Sep-27 10:28N 36°08' W 005°18'0 0.0
2017-Sep-27 10:00N 36°08' W 005°18'0 0.0
2017-Sep-27 09:10N 36°08' W 005°18'0 0.1
2017-Sep-27 08:58N 36°08' W 005°18'0 0.5
2017-Sep-27 08:30N 36°09' W 005°18'3 5.1
2017-Sep-27 08:00N 36°06' W 005°18'815.4
2017-Sep-27 07:31N 35°59' W 005°23'714.5
2017-Sep-27 07:00N 35°57' W 005°31'4011.7
2017-Sep-27 03:37N 36°07' W 006°18'0 0.0
2017-Sep-27 03:22N 36°07' W 006°18'0 0.0
2017-Sep-27 02:58N 36°07' W 006°18'0 0.0
2017-Sep-26 19:42N 36°07' W 006°18'0 0.0
2017-Sep-26 19:19N 36°07' W 006°18'0 0.0
2017-Sep-26 19:00N 36°07' W 006°18'0 0.1
2017-Sep-26 18:27N 36°07' W 006°18'0 0.2
2017-Sep-26 17:50N 36°07' W 006°18'0 0.0
2017-Sep-26 16:37N 36°07' W 006°18'0 0.2
2017-Sep-26 16:30N 36°07' W 006°18'0 0.0
2017-Sep-26 15:56N 36°07' W 006°18'0 0.0
2017-Sep-26 14:27N 36°07' W 006°18'0 0.1
2017-Sep-26 13:16N 36°07' W 006°18'0 0.1
2017-Sep-26 12:48N 36°07' W 006°18'35 0.7
2017-Sep-24 09:04N 35°58' W 005°36'112.4
2017-Sep-24 09:00N 35°58' W 005°35'612.1
2017-Sep-24 08:30N 35°59' W 005°28'510.1
2017-Sep-24 08:00N 36°03' W 005°23'0 1.0
2017-Sep-24 07:30N 36°03' W 005°23'0 0.9
2017-Sep-24 07:00N 36°02' W 005°23'1 1.5
2017-Sep-24 06:30N 36°02' W 005°23'4 8.6
2017-Sep-24 06:00N 35°58' W 005°26'2217.9
2017-Sep-24 04:47N 35°55' W 005°53'518.7
2017-Sep-24 04:30N 35°55' W 005°60'  
2017-Sep-19 22:38N 36°06' W 006°18'  
Track history (hours):
 
Tides and Currents Weather Stations Pressure Air Temp Water Temp Dewpoint Dewpoint Depression Visibility Wind Speed Wind Dir Waves Ship Positions

Em Psara

Last reported at 2017-Sep-28 15:39 UTC. Time now 2017-Oct-16 22:35 UTC.
Position N 36°08' W 005°18'.
Warning: this ship's position is 18 days out of date.

Length 206 m; draft 8.2 m.

Type: Cargo ship. MMSI: 636014960.

Date/timePositionNaut miles runAvg speedWind from/ knotsBaromVisibWave heightAir tempDewpointWater temp
2017-Sep-28 15:39N 36°08' W 005°18'0 0.0
2017-Sep-28 15:27N 36°08' W 005°18'0 0.0
2017-Sep-28 12:45N 36°08' W 005°18'0 0.0
2017-Sep-28 12:22N 36°08' W 005°18'0 0.0
2017-Sep-28 11:58N 36°08' W 005°18'0 0.0
2017-Sep-28 09:44N 36°08' W 005°18'0 0.0
2017-Sep-28 07:03N 36°08' W 005°18'0 0.1
2017-Sep-28 06:54N 36°08' W 005°18'0 0.1
2017-Sep-28 06:30N 36°08' W 005°18'0 0.0
2017-Sep-28 05:59N 36°08' W 005°18'0 0.0
2017-Sep-28 05:29N 36°08' W 005°18'0 0.1
2017-Sep-28 04:59N 36°08' W 005°18'0 0.0
2017-Sep-28 04:29N 36°08' W 005°18'0 0.0
2017-Sep-28 03:58N 36°08' W 005°18'0 0.0
2017-Sep-28 03:30N 36°08' W 005°18'0 0.0
2017-Sep-28 02:52N 36°08' W 005°18'0 0.0
2017-Sep-28 02:28N 36°08' W 005°18'0 0.1
2017-Sep-28 01:58N 36°08' W 005°18'0 0.0
2017-Sep-28 01:28N 36°08' W 005°18'0 0.0
2017-Sep-28 01:00N 36°08' W 005°18'0 0.0
2017-Sep-28 00:30N 36°08' W 005°18'0 0.0
2017-Sep-28 00:00N 36°08' W 005°18'0 0.0
2017-Sep-27 23:30N 36°08' W 005°18'0 0.0
2017-Sep-27 22:59N 36°08' W 005°18'0 0.0
2017-Sep-27 22:29N 36°08' W 005°18'0 0.0
2017-Sep-27 21:55N 36°08' W 005°18'0 0.0
2017-Sep-27 21:28N 36°08' W 005°18'0 0.0
2017-Sep-27 21:00N 36°08' W 005°18'0 0.0
2017-Sep-27 20:30N 36°08' W 005°18'0 0.0
2017-Sep-27 20:00N 36°08' W 005°18'0 0.0
2017-Sep-27 19:24N 36°08' W 005°18'0 0.0
2017-Sep-27 18:59N 36°08' W 005°18'0 0.0
2017-Sep-27 18:28N 36°08' W 005°18'0 0.0
2017-Sep-27 17:58N 36°08' W 005°18'0 0.0
2017-Sep-27 17:30N 36°08' W 005°18'0 0.0
2017-Sep-27 17:00N 36°08' W 005°18'0 0.0
2017-Sep-27 16:30N 36°08' W 005°18'0 0.0
2017-Sep-27 16:00N 36°08' W 005°18'0 0.0
2017-Sep-27 15:08N 36°08' W 005°18'0 0.3
2017-Sep-27 14:59N 36°08' W 005°18'0 0.1
2017-Sep-27 14:29N 36°08' W 005°18'0 0.0
2017-Sep-27 13:49N 36°08' W 005°18'0 0.0
2017-Sep-27 13:28N 36°08' W 005°18'0 0.0
2017-Sep-27 12:59N 36°08' W 005°18'0 0.0
2017-Sep-27 12:20N 36°08' W 005°18'0 0.0
2017-Sep-27 11:56N 36°08' W 005°18'0 0.0
2017-Sep-27 11:29N 36°08' W 005°18'0 0.0
2017-Sep-27 10:59N 36°08' W 005°18'0 0.1
2017-Sep-27 10:28N 36°08' W 005°18'0 0.0
2017-Sep-27 10:00N 36°08' W 005°18'0 0.0
2017-Sep-27 09:10N 36°08' W 005°18'0 0.1
2017-Sep-27 08:58N 36°08' W 005°18'0 0.5
2017-Sep-27 08:30N 36°09' W 005°18'3 5.1
2017-Sep-27 08:00N 36°06' W 005°18'815.4
2017-Sep-27 07:31N 35°59' W 005°23'714.5
2017-Sep-27 07:00N 35°57' W 005°31'4011.7
2017-Sep-27 03:37N 36°07' W 006°18'0 0.0
2017-Sep-27 03:22N 36°07' W 006°18'0 0.0
2017-Sep-27 02:58N 36°07' W 006°18'0 0.0
2017-Sep-26 19:42N 36°07' W 006°18'0 0.0
2017-Sep-26 19:19N 36°07' W 006°18'0 0.0
2017-Sep-26 19:00N 36°07' W 006°18'0 0.1
2017-Sep-26 18:27N 36°07' W 006°18'0 0.2
2017-Sep-26 17:50N 36°07' W 006°18'0 0.0
2017-Sep-26 16:37N 36°07' W 006°18'0 0.2
2017-Sep-26 16:30N 36°07' W 006°18'0 0.0
2017-Sep-26 15:56N 36°07' W 006°18'0 0.0
2017-Sep-26 14:27N 36°07' W 006°18'0 0.1
2017-Sep-26 13:16N 36°07' W 006°18'0 0.1
2017-Sep-26 12:48N 36°07' W 006°18'35 0.7
2017-Sep-24 09:04N 35°58' W 005°36'112.4
2017-Sep-24 09:00N 35°58' W 005°35'612.1
2017-Sep-24 08:30N 35°59' W 005°28'510.1
2017-Sep-24 08:00N 36°03' W 005°23'0 1.0
2017-Sep-24 07:30N 36°03' W 005°23'0 0.9
2017-Sep-24 07:00N 36°02' W 005°23'1 1.5
2017-Sep-24 06:30N 36°02' W 005°23'4 8.6
2017-Sep-24 06:00N 35°58' W 005°26'2217.9
2017-Sep-24 04:47N 35°55' W 005°53'518.7
2017-Sep-24 04:30N 35°55' W 005°60'  
2017-Sep-19 22:38N 36°06' W 006°18'  

Dump ship's entire track history